Ana Sayfa
METAR-TAF:

METAR-TAF

Havaalanları :

Roben-Hood Airport

Big Rapids, Michigan, Amerika Birleşik Devletleri

Enlem: 43-43-21N, Boylam: 085-30-15W, yükseklik: 302 m

Güncel hava durumu gözlemi

Rapor saat 23:15 UTC de 13 dakika önce yapıldı.
Rüzgar güneydan 5 kt
Sıcaklık 2°C
Nem 60%
Basınç 1018 hPa
Görüş mesafesi: 16.1 km
3800 ft yükseklikte parçalı çok bulutlu
5500 ft yükseklikte çok bulutlu

METAR: KRQB 122315Z AUTO 19005KT 10SM BKN038 OVC055 02/M05 A3006 RMK AO2 T00201046

Saat: 18:28 (23:28 UTC)


TAF: eksik

4.000'den fazla havaalanı için hava durumu gözlemleri ve tahminleri (METAR ve TAF raporları).

Kullanılabilir istasyonlar harita üzerinde sarı ve kırmızı noktalarla gösterilir.

İstasyonun adını görmek için fareyi noktanın üzerinde gezdirin.

Sonrasında hava gözlem ve tahminlerini görmek için tıklayın.

Haritayı değiştirmek için: yaklaştırmak için siyah artı işaretli yeşil düğmeye ve uzaklaştırmak için de eksi işaretli düğmeye hızla tıklayın; bitişik haritalar için yeşil okları kullanın.


METAR-TAF: